sensor_id;sensor_type;location;lat;lon;timestamp;P1;durP1;ratioP1;P2;durP2;ratioP2
19191;SDS011;9728;48.194;16.346;2023-02-02T00:02:31;0.23;;;0.23;;
19191;SDS011;9728;48.194;16.346;2023-02-02T00:07:34;0.20;;;0.20;;
19191;SDS011;9728;48.194;16.346;2023-02-02T00:12:38;0.30;;;0.30;;
19191;SDS011;9728;48.194;16.346;2023-02-02T00:17:43;0.20;;;0.20;;
19191;SDS011;9728;48.194;16.346;2023-02-02T00:22:46;0.20;;;0.20;;
19191;SDS011;9728;48.194;16.346;2023-02-02T00:27:50;0.30;;;0.30;;
19191;SDS011;9728;48.194;16.346;2023-02-02T00:32:54;0.20;;;0.20;;
19191;SDS011;9728;48.194;16.346;2023-02-02T00:37:58;0.20;;;0.20;;
19191;SDS011;9728;48.194;16.346;2023-02-02T00:43:01;0.23;;;0.23;;
19191;SDS011;9728;48.194;16.346;2023-02-02T00:48:06;0.20;;;0.20;;
19191;SDS011;9728;48.194;16.346;2023-02-02T00:53:11;0.30;;;0.30;;
19191;SDS011;9728;48.194;16.346;2023-02-02T00:58:14;0.40;;;0.30;;
19191;SDS011;9728;48.194;16.346;2023-02-02T01:03:20;0.20;;;0.20;;
19191;SDS011;9728;48.194;16.346;2023-02-02T01:08:23;0.30;;;0.30;;
19191;SDS011;9728;48.194;16.346;2023-02-02T01:13:27;0.30;;;0.30;;
19191;SDS011;9728;48.194;16.346;2023-02-02T01:18:31;0.37;;;0.37;;
19191;SDS011;9728;48.194;16.346;2023-02-02T01:23:35;0.20;;;0.20;;
19191;SDS011;9728;48.194;16.346;2023-02-02T01:28:40;0.30;;;0.30;;
19191;SDS011;9728;48.194;16.346;2023-02-02T01:33:45;0.40;;;0.40;;
19191;SDS011;9728;48.194;16.346;2023-02-02T01:38:50;0.73;;;0.20;;
19191;SDS011;9728;48.194;16.346;2023-02-02T01:43:55;0.10;;;0.10;;
19191;SDS011;9728;48.194;16.346;2023-02-02T01:49:03;0.20;;;0.20;;
19191;SDS011;9728;48.194;16.346;2023-02-02T01:54:12;0.20;;;0.20;;
19191;SDS011;9728;48.194;16.346;2023-02-02T01:59:18;0.30;;;0.30;;
19191;SDS011;9728;48.194;16.346;2023-02-02T02:04:24;0.20;;;0.20;;
19191;SDS011;9728;48.194;16.346;2023-02-02T02:09:31;0.30;;;0.30;;
19191;SDS011;9728;48.194;16.346;2023-02-02T02:14:36;0.20;;;0.20;;
19191;SDS011;9728;48.194;16.346;2023-02-02T02:20:13;0.20;;;0.20;;
19191;SDS011;9728;48.194;16.346;2023-02-02T02:25:58;0.90;;;0.40;;
19191;SDS011;9728;48.194;16.346;2023-02-02T02:37:17;0.30;;;0.30;;
19191;SDS011;9728;48.194;16.346;2023-02-02T02:42:32;0.30;;;0.30;;
19191;SDS011;9728;48.194;16.346;2023-02-02T02:47:40;0.30;;;0.30;;
19191;SDS011;9728;48.194;16.346;2023-02-02T02:52:45;0.30;;;0.30;;
19191;SDS011;9728;48.194;16.346;2023-02-02T02:57:55;0.27;;;0.20;;
19191;SDS011;9728;48.194;16.346;2023-02-02T03:03:10;0.30;;;0.30;;
19191;SDS011;9728;48.194;16.346;2023-02-02T03:08:23;0.27;;;0.27;;
19191;SDS011;9728;48.194;16.346;2023-02-02T03:13:33;0.30;;;0.30;;
19191;SDS011;9728;48.194;16.346;2023-02-02T03:18:38;0.30;;;0.30;;
19191;SDS011;9728;48.194;16.346;2023-02-02T03:23:44;0.30;;;0.30;;
19191;SDS011;9728;48.194;16.346;2023-02-02T03:28:47;0.30;;;0.30;;
19191;SDS011;9728;48.194;16.346;2023-02-02T03:33:53;0.20;;;0.20;;
19191;SDS011;9728;48.194;16.346;2023-02-02T03:38:57;0.20;;;0.20;;
19191;SDS011;9728;48.194;16.346;2023-02-02T03:44:00;0.30;;;0.30;;
19191;SDS011;9728;48.194;16.346;2023-02-02T03:49:05;0.30;;;0.30;;
19191;SDS011;9728;48.194;16.346;2023-02-02T03:54:09;0.37;;;0.30;;
19191;SDS011;9728;48.194;16.346;2023-02-02T03:59:12;0.50;;;0.40;;
19191;SDS011;9728;48.194;16.346;2023-02-02T04:04:17;0.40;;;0.40;;
19191;SDS011;9728;48.194;16.346;2023-02-02T04:09:20;0.50;;;0.40;;
19191;SDS011;9728;48.194;16.346;2023-02-02T04:14:23;0.77;;;0.60;;
19191;SDS011;9728;48.194;16.346;2023-02-02T04:19:28;0.40;;;0.40;;
19191;SDS011;9728;48.194;16.346;2023-02-02T04:24:32;0.40;;;0.40;;
19191;SDS011;9728;48.194;16.346;2023-02-02T04:29:38;0.30;;;0.30;;
19191;SDS011;9728;48.194;16.346;2023-02-02T04:34:43;0.40;;;0.40;;
19191;SDS011;9728;48.194;16.346;2023-02-02T04:39:47;0.40;;;0.40;;
19191;SDS011;9728;48.194;16.346;2023-02-02T04:44:51;0.40;;;0.40;;
19191;SDS011;9728;48.194;16.346;2023-02-02T04:49:55;0.40;;;0.40;;
19191;SDS011;9728;48.194;16.346;2023-02-02T04:54:59;0.43;;;0.43;;
19191;SDS011;9728;48.194;16.346;2023-02-02T05:00:03;0.40;;;0.40;;
19191;SDS011;9728;48.194;16.346;2023-02-02T05:05:10;0.77;;;0.43;;
19191;SDS011;9728;48.194;16.346;2023-02-02T05:10:15;0.40;;;0.40;;
19191;SDS011;9728;48.194;16.346;2023-02-02T05:15:18;0.40;;;0.40;;
19191;SDS011;9728;48.194;16.346;2023-02-02T05:20:25;0.33;;;0.30;;
19191;SDS011;9728;48.194;16.346;2023-02-02T05:25:28;0.80;;;0.50;;
19191;SDS011;9728;48.194;16.346;2023-02-02T05:30:31;0.40;;;0.40;;
19191;SDS011;9728;48.194;16.346;2023-02-02T05:35:36;0.40;;;0.40;;
19191;SDS011;9728;48.194;16.346;2023-02-02T05:40:40;0.40;;;0.40;;
19191;SDS011;9728;48.194;16.346;2023-02-02T05:45:43;0.70;;;0.50;;
19191;SDS011;9728;48.194;16.346;2023-02-02T05:50:49;1.53;;;0.57;;
19191;SDS011;9728;48.194;16.346;2023-02-02T05:56:00;0.60;;;0.50;;
19191;SDS011;9728;48.194;16.346;2023-02-02T06:01:03;1.57;;;0.70;;
19191;SDS011;9728;48.194;16.346;2023-02-02T06:06:08;1.67;;;0.50;;
19191;SDS011;9728;48.194;16.346;2023-02-02T06:11:13;0.50;;;0.50;;
19191;SDS011;9728;48.194;16.346;2023-02-02T06:16:18;0.60;;;0.50;;
19191;SDS011;9728;48.194;16.346;2023-02-02T06:21:23;0.53;;;0.43;;
19191;SDS011;9728;48.194;16.346;2023-02-02T06:26:26;0.60;;;0.50;;
19191;SDS011;9728;48.194;16.346;2023-02-02T06:31:30;0.70;;;0.60;;
19191;SDS011;9728;48.194;16.346;2023-02-02T06:36:36;0.70;;;0.60;;
19191;SDS011;9728;48.194;16.346;2023-02-02T06:41:39;0.40;;;0.40;;
19191;SDS011;9728;48.194;16.346;2023-02-02T06:46:45;0.47;;;0.47;;
19191;SDS011;9728;48.194;16.346;2023-02-02T06:51:50;0.60;;;0.60;;
19191;SDS011;9728;48.194;16.346;2023-02-02T06:56:54;0.50;;;0.50;;
19191;SDS011;9728;48.194;16.346;2023-02-02T07:01:57;1.37;;;0.73;;
19191;SDS011;9728;48.194;16.346;2023-02-02T07:07:02;0.80;;;0.70;;
19191;SDS011;9728;48.194;16.346;2023-02-02T07:12:06;0.70;;;0.50;;
19191;SDS011;9728;48.194;16.346;2023-02-02T07:17:09;0.50;;;0.50;;
19191;SDS011;9728;48.194;16.346;2023-02-02T07:22:14;0.50;;;0.50;;
19191;SDS011;9728;48.194;16.346;2023-02-02T07:27:18;1.00;;;0.60;;
19191;SDS011;9728;48.194;16.346;2023-02-02T07:32:21;0.50;;;0.40;;
19191;SDS011;9728;48.194;16.346;2023-02-02T07:37:26;1.10;;;0.57;;
19191;SDS011;9728;48.194;16.346;2023-02-02T07:42:29;1.70;;;0.60;;
19191;SDS011;9728;48.194;16.346;2023-02-02T07:47:33;1.17;;;0.60;;
19191;SDS011;9728;48.194;16.346;2023-02-02T07:52:37;0.60;;;0.50;;
19191;SDS011;9728;48.194;16.346;2023-02-02T07:57:41;0.50;;;0.50;;
19191;SDS011;9728;48.194;16.346;2023-02-02T08:02:47;0.83;;;0.70;;
19191;SDS011;9728;48.194;16.346;2023-02-02T08:07:52;0.70;;;0.60;;
19191;SDS011;9728;48.194;16.346;2023-02-02T08:12:55;0.50;;;0.50;;
19191;SDS011;9728;48.194;16.346;2023-02-02T08:17:59;0.80;;;0.70;;
19191;SDS011;9728;48.194;16.346;2023-02-02T08:23:04;0.67;;;0.50;;
19191;SDS011;9728;48.194;16.346;2023-02-02T08:28:13;4.53;;;0.80;;
19191;SDS011;9728;48.194;16.346;2023-02-02T08:33:17;0.70;;;0.70;;
19191;SDS011;9728;48.194;16.346;2023-02-02T08:38:23;1.20;;;0.67;;
19191;SDS011;9728;48.194;16.346;2023-02-02T08:43:27;0.63;;;0.60;;
19191;SDS011;9728;48.194;16.346;2023-02-02T08:48:32;1.87;;;0.60;;
19191;SDS011;9728;48.194;16.346;2023-02-02T08:53:38;0.60;;;0.60;;
19191;SDS011;9728;48.194;16.346;2023-02-02T08:58:43;0.80;;;0.60;;
19191;SDS011;9728;48.194;16.346;2023-02-02T09:03:47;0.50;;;0.50;;
19191;SDS011;9728;48.194;16.346;2023-02-02T09:08:56;1.47;;;0.70;;
19191;SDS011;9728;48.194;16.346;2023-02-02T09:13:59;1.83;;;0.70;;
19191;SDS011;9728;48.194;16.346;2023-02-02T09:19:04;0.70;;;0.70;;
19191;SDS011;9728;48.194;16.346;2023-02-02T09:24:10;0.80;;;0.60;;
19191;SDS011;9728;48.194;16.346;2023-02-02T09:29:16;0.80;;;0.80;;
19191;SDS011;9728;48.194;16.346;2023-02-02T09:34:23;0.60;;;0.60;;
19191;SDS011;9728;48.194;16.346;2023-02-02T09:39:28;0.63;;;0.63;;
19191;SDS011;9728;48.194;16.346;2023-02-02T09:44:35;0.80;;;0.63;;
19191;SDS011;9728;48.194;16.346;2023-02-02T09:49:53;1.70;;;0.80;;
19191;SDS011;9728;48.194;16.346;2023-02-02T09:55:05;1.30;;;0.70;;
19191;SDS011;9728;48.194;16.346;2023-02-02T10:00:17;1.73;;;0.73;;
19191;SDS011;9728;48.194;16.346;2023-02-02T10:05:32;0.83;;;0.60;;
19191;SDS011;9728;48.194;16.346;2023-02-02T10:10:46;1.03;;;0.70;;
19191;SDS011;9728;48.194;16.346;2023-02-02T10:15:53;1.03;;;0.67;;
19191;SDS011;9728;48.194;16.346;2023-02-02T10:21:05;0.70;;;0.70;;
19191;SDS011;9728;48.194;16.346;2023-02-02T10:26:15;0.93;;;0.80;;
19191;SDS011;9728;48.194;16.346;2023-02-02T10:31:25;0.97;;;0.60;;
19191;SDS011;9728;48.194;16.346;2023-02-02T10:36:41;0.90;;;0.60;;
19191;SDS011;9728;48.194;16.346;2023-02-02T10:42:05;1.30;;;1.00;;
19191;SDS011;9728;48.194;16.346;2023-02-02T10:47:20;1.00;;;0.80;;
19191;SDS011;9728;48.194;16.346;2023-02-02T10:52:28;2.10;;;0.70;;
19191;SDS011;9728;48.194;16.346;2023-02-02T10:57:41;0.70;;;0.60;;
19191;SDS011;9728;48.194;16.346;2023-02-02T11:02:53;0.93;;;0.87;;
19191;SDS011;9728;48.194;16.346;2023-02-02T11:07:57;0.83;;;0.80;;
19191;SDS011;9728;48.194;16.346;2023-02-02T11:13:02;0.90;;;0.60;;
19191;SDS011;9728;48.194;16.346;2023-02-02T11:18:12;1.10;;;0.80;;
19191;SDS011;9728;48.194;16.346;2023-02-02T11:23:27;1.27;;;0.70;;
19191;SDS011;9728;48.194;16.346;2023-02-02T11:28:33;1.63;;;0.87;;
19191;SDS011;9728;48.194;16.346;2023-02-02T11:33:39;1.10;;;0.67;;
19191;SDS011;9728;48.194;16.346;2023-02-02T11:38:42;1.33;;;0.80;;
19191;SDS011;9728;48.194;16.346;2023-02-02T11:43:52;0.90;;;0.70;;
19191;SDS011;9728;48.194;16.346;2023-02-02T11:49:13;1.00;;;0.70;;
19191;SDS011;9728;48.194;16.346;2023-02-02T11:54:21;1.00;;;0.97;;
19191;SDS011;9728;48.194;16.346;2023-02-02T11:59:31;1.07;;;0.73;;
19191;SDS011;9728;48.194;16.346;2023-02-02T12:04:39;1.67;;;0.77;;
19191;SDS011;9728;48.194;16.346;2023-02-02T12:09:43;1.13;;;0.70;;
19191;SDS011;9728;48.194;16.346;2023-02-02T12:14:49;0.87;;;0.63;;
19191;SDS011;9728;48.194;16.346;2023-02-02T12:20:02;1.00;;;0.70;;
19191;SDS011;9728;48.194;16.346;2023-02-02T12:25:22;2.10;;;0.90;;
19191;SDS011;9728;48.194;16.346;2023-02-02T12:30:41;1.23;;;0.80;;
19191;SDS011;9728;48.194;16.346;2023-02-02T12:35:59;1.73;;;0.80;;
19191;SDS011;9728;48.194;16.346;2023-02-02T12:41:23;2.00;;;0.90;;
19191;SDS011;9728;48.194;16.346;2023-02-02T12:52:07;0.80;;;0.67;;
19191;SDS011;9728;48.194;16.346;2023-02-02T12:57:20;1.87;;;1.00;;
19191;SDS011;9728;48.194;16.346;2023-02-02T13:02:33;0.80;;;0.70;;
19191;SDS011;9728;48.194;16.346;2023-02-02T13:07:42;0.97;;;0.87;;
19191;SDS011;9728;48.194;16.346;2023-02-02T13:13:07;1.60;;;1.00;;
19191;SDS011;9728;48.194;16.346;2023-02-02T13:18:17;1.53;;;0.90;;
19191;SDS011;9728;48.194;16.346;2023-02-02T13:23:26;2.13;;;0.87;;
19191;SDS011;9728;48.194;16.346;2023-02-02T13:28:36;1.20;;;0.90;;
19191;SDS011;9728;48.194;16.346;2023-02-02T13:33:44;0.87;;;0.70;;
19191;SDS011;9728;48.194;16.346;2023-02-02T13:38:56;1.90;;;0.90;;
19191;SDS011;9728;48.194;16.346;2023-02-02T13:44:04;2.03;;;1.07;;
19191;SDS011;9728;48.194;16.346;2023-02-02T13:49:14;2.10;;;1.00;;
19191;SDS011;9728;48.194;16.346;2023-02-02T14:00:11;5.50;;;1.57;;
19191;SDS011;9728;48.194;16.346;2023-02-02T14:05:23;2.80;;;0.70;;
19191;SDS011;9728;48.194;16.346;2023-02-02T14:10:30;2.93;;;0.83;;
19191;SDS011;9728;48.194;16.346;2023-02-02T14:15:38;2.37;;;0.70;;
19191;SDS011;9728;48.194;16.346;2023-02-02T14:20:55;0.70;;;0.70;;
19191;SDS011;9728;48.194;16.346;2023-02-02T14:26:05;0.53;;;0.53;;
19191;SDS011;9728;48.194;16.346;2023-02-02T14:31:25;2.37;;;0.60;;
19191;SDS011;9728;48.194;16.346;2023-02-02T14:36:33;1.03;;;0.63;;
19191;SDS011;9728;48.194;16.346;2023-02-02T14:47:45;0.70;;;0.70;;
19191;SDS011;9728;48.194;16.346;2023-02-02T14:52:57;0.93;;;0.70;;
19191;SDS011;9728;48.194;16.346;2023-02-02T14:58:04;0.43;;;0.40;;
19191;SDS011;9728;48.194;16.346;2023-02-02T15:08:43;0.60;;;0.57;;
19191;SDS011;9728;48.194;16.346;2023-02-02T15:13:48;1.17;;;0.70;;
19191;SDS011;9728;48.194;16.346;2023-02-02T15:19:20;1.00;;;0.60;;
19191;SDS011;9728;48.194;16.346;2023-02-02T15:24:30;0.83;;;0.50;;
19191;SDS011;9728;48.194;16.346;2023-02-02T15:29:38;0.50;;;0.50;;
19191;SDS011;9728;48.194;16.346;2023-02-02T15:34:45;1.03;;;0.70;;
19191;SDS011;9728;48.194;16.346;2023-02-02T15:39:54;0.60;;;0.60;;
19191;SDS011;9728;48.194;16.346;2023-02-02T15:45:00;1.80;;;0.60;;
19191;SDS011;9728;48.194;16.346;2023-02-02T15:50:04;0.53;;;0.50;;
19191;SDS011;9728;48.194;16.346;2023-02-02T15:55:22;0.50;;;0.50;;
19191;SDS011;9728;48.194;16.346;2023-02-02T16:00:33;0.60;;;0.60;;
19191;SDS011;9728;48.194;16.346;2023-02-02T16:05:42;0.57;;;0.57;;
19191;SDS011;9728;48.194;16.346;2023-02-02T16:10:50;0.60;;;0.60;;
19191;SDS011;9728;48.194;16.346;2023-02-02T16:16:05;0.73;;;0.70;;
19191;SDS011;9728;48.194;16.346;2023-02-02T16:21:23;0.67;;;0.60;;
19191;SDS011;9728;48.194;16.346;2023-02-02T16:26:30;0.70;;;0.70;;
19191;SDS011;9728;48.194;16.346;2023-02-02T16:31:35;1.20;;;0.80;;
19191;SDS011;9728;48.194;16.346;2023-02-02T16:36:51;1.10;;;0.80;;
19191;SDS011;9728;48.194;16.346;2023-02-02T16:42:20;1.83;;;0.90;;
19191;SDS011;9728;48.194;16.346;2023-02-02T16:47:30;1.30;;;0.67;;
19191;SDS011;9728;48.194;16.346;2023-02-02T16:52:46;0.60;;;0.60;;
19191;SDS011;9728;48.194;16.346;2023-02-02T16:57:53;0.60;;;0.60;;
19191;SDS011;9728;48.194;16.346;2023-02-02T17:02:59;1.00;;;0.90;;
19191;SDS011;9728;48.194;16.346;2023-02-02T17:08:06;0.73;;;0.70;;
19191;SDS011;9728;48.194;16.346;2023-02-02T17:18:52;1.13;;;0.83;;
19191;SDS011;9728;48.194;16.346;2023-02-02T17:23:56;1.17;;;1.00;;
19191;SDS011;9728;48.194;16.346;2023-02-02T17:29:02;1.80;;;0.90;;
19191;SDS011;9728;48.194;16.346;2023-02-02T17:34:08;1.87;;;1.00;;
19191;SDS011;9728;48.194;16.346;2023-02-02T17:39:15;1.13;;;1.00;;
19191;SDS011;9728;48.194;16.346;2023-02-02T17:44:23;0.87;;;0.83;;
19191;SDS011;9728;48.194;16.346;2023-02-02T17:49:28;2.93;;;0.90;;
19191;SDS011;9728;48.194;16.346;2023-02-02T17:54:33;0.60;;;0.60;;
19191;SDS011;9728;48.194;16.346;2023-02-02T17:59:38;0.93;;;0.77;;
19191;SDS011;9728;48.194;16.346;2023-02-02T18:04:42;1.33;;;0.80;;
19191;SDS011;9728;48.194;16.346;2023-02-02T18:09:46;1.47;;;1.00;;
19191;SDS011;9728;48.194;16.346;2023-02-02T18:14:52;1.23;;;0.97;;
19191;SDS011;9728;48.194;16.346;2023-02-02T18:19:56;1.70;;;1.10;;
19191;SDS011;9728;48.194;16.346;2023-02-02T18:25:01;1.00;;;0.90;;
19191;SDS011;9728;48.194;16.346;2023-02-02T18:30:08;0.80;;;0.80;;
19191;SDS011;9728;48.194;16.346;2023-02-02T18:35:13;1.50;;;1.07;;
19191;SDS011;9728;48.194;16.346;2023-02-02T18:40:17;1.43;;;1.00;;
19191;SDS011;9728;48.194;16.346;2023-02-02T18:45:25;1.00;;;0.90;;
19191;SDS011;9728;48.194;16.346;2023-02-02T18:50:30;1.07;;;0.97;;
19191;SDS011;9728;48.194;16.346;2023-02-02T18:55:35;2.03;;;1.00;;
19191;SDS011;9728;48.194;16.346;2023-02-02T19:00:43;1.50;;;1.20;;
19191;SDS011;9728;48.194;16.346;2023-02-02T19:05:49;0.97;;;0.90;;
19191;SDS011;9728;48.194;16.346;2023-02-02T19:11:13;1.53;;;0.90;;
19191;SDS011;9728;48.194;16.346;2023-02-02T19:16:21;2.37;;;1.10;;
19191;SDS011;9728;48.194;16.346;2023-02-02T19:21:29;1.87;;;1.20;;
19191;SDS011;9728;48.194;16.346;2023-02-02T19:26:33;1.57;;;1.00;;
19191;SDS011;9728;48.194;16.346;2023-02-02T19:31:42;1.27;;;1.00;;
19191;SDS011;9728;48.194;16.346;2023-02-02T19:36:47;1.30;;;0.97;;
19191;SDS011;9728;48.194;16.346;2023-02-02T19:41:52;1.10;;;1.00;;
19191;SDS011;9728;48.194;16.346;2023-02-02T19:47:02;1.00;;;0.87;;
19191;SDS011;9728;48.194;16.346;2023-02-02T19:52:23;1.13;;;0.90;;
19191;SDS011;9728;48.194;16.346;2023-02-02T19:57:31;2.07;;;0.90;;
19191;SDS011;9728;48.194;16.346;2023-02-02T20:02:42;1.40;;;1.17;;
19191;SDS011;9728;48.194;16.346;2023-02-02T20:07:59;1.03;;;0.93;;
19191;SDS011;9728;48.194;16.346;2023-02-02T20:13:13;1.00;;;0.90;;
19191;SDS011;9728;48.194;16.346;2023-02-02T20:18:23;1.77;;;1.63;;
19191;SDS011;9728;48.194;16.346;2023-02-02T20:23:34;1.43;;;1.13;;
19191;SDS011;9728;48.194;16.346;2023-02-02T20:28:44;1.73;;;0.93;;
19191;SDS011;9728;48.194;16.346;2023-02-02T20:33:52;1.43;;;1.20;;
19191;SDS011;9728;48.194;16.346;2023-02-02T20:39:05;0.90;;;0.80;;
19191;SDS011;9728;48.194;16.346;2023-02-02T20:44:29;0.93;;;0.83;;
19191;SDS011;9728;48.194;16.346;2023-02-02T20:49:36;1.17;;;1.00;;
19191;SDS011;9728;48.194;16.346;2023-02-02T20:54:42;2.03;;;1.13;;
19191;SDS011;9728;48.194;16.346;2023-02-02T20:59:46;1.67;;;1.00;;
19191;SDS011;9728;48.194;16.346;2023-02-02T21:05:00;1.83;;;1.10;;
19191;SDS011;9728;48.194;16.346;2023-02-02T21:10:04;1.53;;;1.00;;
19191;SDS011;9728;48.194;16.346;2023-02-02T21:15:08;1.73;;;1.20;;
19191;SDS011;9728;48.194;16.346;2023-02-02T21:20:13;1.10;;;1.00;;
19191;SDS011;9728;48.194;16.346;2023-02-02T21:25:17;1.83;;;0.90;;
19191;SDS011;9728;48.194;16.346;2023-02-02T21:30:29;0.73;;;0.73;;
19191;SDS011;9728;48.194;16.346;2023-02-02T21:35:34;3.03;;;1.17;;
19191;SDS011;9728;48.194;16.346;2023-02-02T21:40:37;1.47;;;1.37;;
19191;SDS011;9728;48.194;16.346;2023-02-02T21:45:42;1.33;;;1.00;;
19191;SDS011;9728;48.194;16.346;2023-02-02T21:50:51;1.30;;;1.03;;
19191;SDS011;9728;48.194;16.346;2023-02-02T21:55:56;1.30;;;1.20;;
19191;SDS011;9728;48.194;16.346;2023-02-02T22:01:01;2.20;;;1.30;;
19191;SDS011;9728;48.194;16.346;2023-02-02T22:06:26;2.70;;;1.20;;
19191;SDS011;9728;48.194;16.346;2023-02-02T22:11:33;0.90;;;0.80;;
19191;SDS011;9728;48.194;16.346;2023-02-02T22:16:45;1.60;;;1.10;;
19191;SDS011;9728;48.194;16.346;2023-02-02T22:21:52;2.17;;;1.03;;
19191;SDS011;9728;48.194;16.346;2023-02-02T22:27:00;1.20;;;0.97;;
19191;SDS011;9728;48.194;16.346;2023-02-02T22:32:03;1.30;;;0.97;;
19191;SDS011;9728;48.194;16.346;2023-02-02T22:37:08;1.60;;;1.00;;
19191;SDS011;9728;48.194;16.346;2023-02-02T22:42:11;1.27;;;1.17;;
19191;SDS011;9728;48.194;16.346;2023-02-02T22:47:15;1.90;;;1.17;;
19191;SDS011;9728;48.194;16.346;2023-02-02T22:52:19;1.33;;;1.20;;
19191;SDS011;9728;48.194;16.346;2023-02-02T22:57:23;1.30;;;1.20;;
19191;SDS011;9728;48.194;16.346;2023-02-02T23:02:26;0.90;;;0.90;;
19191;SDS011;9728;48.194;16.346;2023-02-02T23:07:31;1.10;;;0.90;;
19191;SDS011;9728;48.194;16.346;2023-02-02T23:12:35;1.00;;;0.90;;
19191;SDS011;9728;48.194;16.346;2023-02-02T23:17:38;1.37;;;1.20;;
19191;SDS011;9728;48.194;16.346;2023-02-02T23:22:43;1.13;;;1.03;;
19191;SDS011;9728;48.194;16.346;2023-02-02T23:27:47;1.73;;;1.30;;
19191;SDS011;9728;48.194;16.346;2023-02-02T23:32:51;1.83;;;1.03;;
19191;SDS011;9728;48.194;16.346;2023-02-02T23:37:55;1.27;;;1.17;;
19191;SDS011;9728;48.194;16.346;2023-02-02T23:42:59;1.10;;;1.00;;
19191;SDS011;9728;48.194;16.346;2023-02-02T23:48:02;1.63;;;1.30;;
19191;SDS011;9728;48.194;16.346;2023-02-02T23:53:07;1.50;;;1.10;;
19191;SDS011;9728;48.194;16.346;2023-02-02T23:58:12;1.73;;;1.20;;
